Hyde, United Kingdom
Current Conditions -  °F | °C
As of 10:50 AM on Friday 24 Oct 2014 (Local Time) from EGCC Reporting Station
Broken Clouds Broken Clouds  
Wind Chill: 54°   Ceiling: 3900
Heat Index: 54°   Visibility: 6mi
Dew Point: 54°   Wind: 6mph
Humidity: 100%   Direction: 210°SSW
Pressure: 29.88"   Gusts: NA
Location:  53.45°N, 2.08°W
Report Text: EGCC 240950Z 21005KT 9999 FEW019 SCT031 BKN039 12/12 Q1012
Loading
Personal Weather Stations






























Interactive Weather Map
Tropical Storm Tracking
New forecast layout! Learn more

10-Day Weather Forecast

Advertisements
Track Severe Weather on mobile